createdAt,value
2023-05-11T00:01:42.367Z,1011.41
2023-05-11T00:03:27.431Z,1011.3
2023-05-11T00:05:12.335Z,1011.32
2023-05-11T00:06:57.706Z,1011.3
2023-05-11T00:08:42.321Z,1011.25
2023-05-11T00:10:27.627Z,1011.23
2023-05-11T00:12:12.405Z,1011.3
2023-05-11T00:13:57.342Z,1011.17
2023-05-11T00:15:42.408Z,1011.13
2023-05-11T00:17:27.439Z,1011.15
2023-05-11T00:19:12.375Z,1011.11
2023-05-11T00:20:57.378Z,1011.04
2023-05-11T00:22:44.735Z,1011.16
2023-05-11T00:24:27.412Z,1011.1
2023-05-11T00:26:12.397Z,1011.14
2023-05-11T00:27:57.759Z,1011.24
2023-05-11T00:29:42.368Z,1011.18
2023-05-11T00:31:29.602Z,1011.34
2023-05-11T00:33:12.452Z,1011.33
2023-05-11T00:34:57.418Z,1011.23
2023-05-11T00:36:42.388Z,1011.3
2023-05-11T00:38:27.431Z,1011.28
2023-05-11T00:40:12.428Z,1011.35
2023-05-11T00:41:57.387Z,1011.26
2023-05-11T00:43:42.438Z,1011.31
2023-05-11T00:45:27.401Z,1011.28
2023-05-11T00:47:12.431Z,1011.3
2023-05-11T00:48:57.466Z,1011.29
2023-05-11T00:50:42.730Z,1011.34
2023-05-11T00:52:27.402Z,1011.3
2023-05-11T00:54:12.438Z,1011.27
2023-05-11T00:55:57.456Z,1011.32
2023-05-11T00:57:42.423Z,1011.32
2023-05-11T00:59:27.845Z,1011.41
2023-05-11T01:01:12.531Z,1011.43
2023-05-11T01:02:57.453Z,1011.46
2023-05-11T01:04:42.482Z,1011.42
2023-05-11T01:06:27.762Z,1011.47
2023-05-11T01:08:12.751Z,1011.47
2023-05-11T01:09:57.436Z,1011.4
2023-05-11T01:11:42.479Z,1011.3
2023-05-11T01:13:27.763Z,1011.38
2023-05-11T01:15:12.528Z,1011.32
2023-05-11T01:16:57.520Z,1011.35
2023-05-11T01:18:42.538Z,1011.33
2023-05-11T01:20:27.811Z,1011.38
2023-05-11T01:22:12.494Z,1011.39
2023-05-11T01:23:57.452Z,1011.38
2023-05-11T01:25:42.521Z,1011.34
2023-05-11T01:27:27.428Z,1011.41
2023-05-11T01:29:12.451Z,1011.44
2023-05-11T01:30:57.793Z,1011.37
2023-05-11T01:32:42.493Z,1011.38
2023-05-11T01:34:27.468Z,1011.49
2023-05-11T01:36:12.530Z,1011.47
2023-05-11T01:37:57.518Z,1011.47
2023-05-11T01:39:42.469Z,1011.43
2023-05-11T01:41:27.536Z,1011.36
2023-05-11T01:43:12.460Z,1011.47
2023-05-11T01:44:57.462Z,1011.36
2023-05-11T01:46:42.556Z,1011.5
2023-05-11T01:48:27.461Z,1011.52
2023-05-11T01:50:12.495Z,1011.51
2023-05-11T01:51:57.531Z,1011.52
2023-05-11T01:53:42.513Z,1011.49
2023-05-11T01:55:27.504Z,1011.53
2023-05-11T01:57:12.564Z,1011.54
2023-05-11T01:58:57.495Z,1011.57
2023-05-11T02:00:42.500Z,1011.57
2023-05-11T02:02:27.620Z,1011.55
2023-05-11T02:04:12.541Z,1011.6
2023-05-11T02:05:57.526Z,1011.64
2023-05-11T02:07:42.520Z,1011.63
2023-05-11T02:09:27.538Z,1011.61
2023-05-11T02:11:12.519Z,1011.61
2023-05-11T02:12:57.608Z,1011.6
2023-05-11T02:14:42.529Z,1011.55
2023-05-11T02:16:27.537Z,1011.61
2023-05-11T02:18:12.560Z,1011.66
2023-05-11T02:19:57.522Z,1011.64
2023-05-11T02:21:42.521Z,1011.68
2023-05-11T02:23:27.629Z,1011.59
2023-05-11T02:25:12.548Z,1011.61
2023-05-11T02:26:57.549Z,1011.72
2023-05-11T02:28:42.587Z,1011.67
2023-05-11T02:30:27.537Z,1011.63
2023-05-11T02:32:12.552Z,1011.58
2023-05-11T02:33:57.614Z,1011.63
2023-05-11T02:35:42.546Z,1011.64
2023-05-11T02:37:27.549Z,1011.58
2023-05-11T02:39:12.602Z,1011.69
2023-05-11T02:40:57.597Z,1011.69
2023-05-11T02:42:42.577Z,1011.61
2023-05-11T02:44:27.912Z,1011.66
2023-05-11T02:46:12.633Z,1011.6
2023-05-11T02:47:57.609Z,1011.63
2023-05-11T02:49:42.626Z,1011.57
2023-05-11T02:51:27.596Z,1011.7
2023-05-11T02:53:12.612Z,1011.76
2023-05-11T02:54:57.647Z,1011.65
2023-05-11T02:56:42.649Z,1011.73
2023-05-11T02:58:27.630Z,1011.65
2023-05-11T03:00:12.620Z,1011.73
2023-05-11T03:01:57.646Z,1011.58
2023-05-11T03:03:42.956Z,1011.61
2023-05-11T03:05:27.690Z,1011.59
2023-05-11T03:07:12.912Z,1011.69
2023-05-11T03:08:57.614Z,1011.67
2023-05-11T03:10:42.661Z,1011.59
2023-05-11T03:12:27.641Z,1011.58
2023-05-11T03:14:12.617Z,1011.54
2023-05-11T03:15:57.678Z,1011.46
2023-05-11T03:17:42.632Z,1011.44
2023-05-11T03:19:27.654Z,1011.46
2023-05-11T03:21:12.660Z,1011.32
2023-05-11T03:22:57.664Z,1011.35
2023-05-11T03:24:42.646Z,1011.21
2023-05-11T03:26:27.731Z,1011.22
2023-05-11T03:28:12.923Z,1011.14
2023-05-11T03:29:57.637Z,1011.12
2023-05-11T03:31:42.688Z,1011.1
2023-05-11T03:33:27.763Z,1011.16
2023-05-11T03:35:12.944Z,1011.22
2023-05-11T03:36:57.653Z,1011.12
2023-05-11T03:38:42.969Z,1011.18
2023-05-11T03:40:27.656Z,1011.29
2023-05-11T03:42:13.013Z,1011.26
2023-05-11T03:43:57.682Z,1011.3
2023-05-11T03:45:43.083Z,1011.16
2023-05-11T03:47:27.802Z,1011.19
2023-05-11T03:49:13.783Z,1011.17
2023-05-11T03:50:57.668Z,1011.15
2023-05-11T03:52:42.726Z,1011.13
2023-05-11T03:54:27.683Z,1011.13
2023-05-11T03:56:12.682Z,1011.15
2023-05-11T03:57:57.714Z,1011.23
2023-05-11T03:59:42.718Z,1011.17
2023-05-11T04:01:27.688Z,1011.27
2023-05-11T04:03:12.838Z,1011.34
2023-05-11T04:04:57.688Z,1011.32
2023-05-11T04:06:42.703Z,1011.2
2023-05-11T04:08:27.690Z,1011.3
2023-05-11T04:10:12.688Z,1011.27
2023-05-11T04:11:57.725Z,1011.28
2023-05-11T04:13:42.689Z,1011.33
2023-05-11T04:15:27.764Z,1011.38
2023-05-11T04:17:13.011Z,1011.29
2023-05-11T04:18:57.732Z,1011.27
2023-05-11T04:20:42.744Z,1011.37
2023-05-11T04:22:27.719Z,1011.31
2023-05-11T04:24:12.710Z,1011.3
2023-05-11T04:25:57.752Z,1011.32
2023-05-11T04:27:42.734Z,1011.28
2023-05-11T04:29:27.735Z,1011.44
2023-05-11T04:31:12.820Z,1011.35
2023-05-11T04:32:57.801Z,1011.49
2023-05-11T04:34:42.751Z,1011.44
2023-05-11T04:36:27.730Z,1011.45
2023-05-11T04:38:12.738Z,1011.48
2023-05-11T04:39:57.729Z,1011.49
2023-05-11T04:41:42.814Z,1011.56
2023-05-11T04:43:27.738Z,1011.49
2023-05-11T04:45:12.731Z,1011.6
2023-05-11T04:46:57.847Z,1011.62
2023-05-11T04:48:42.738Z,1011.65
2023-05-11T04:50:28.468Z,1011.61
2023-05-11T04:52:12.835Z,1011.69
2023-05-11T04:53:57.744Z,1011.66
2023-05-11T04:55:42.765Z,1011.64
2023-05-11T04:57:28.117Z,1011.65
2023-05-11T04:59:13.086Z,1011.7
2023-05-11T05:00:57.798Z,1011.68
2023-05-11T05:02:43.138Z,1011.71
2023-05-11T05:04:27.756Z,1011.8
2023-05-11T05:06:12.758Z,1011.8
2023-05-11T05:07:57.828Z,1011.82
2023-05-11T05:09:45.167Z,1011.71
2023-05-11T05:11:27.800Z,1011.73
2023-05-11T05:13:12.867Z,1011.82
2023-05-11T05:14:57.796Z,1011.82
2023-05-11T05:16:42.793Z,1011.86
2023-05-11T05:18:27.921Z,1011.82
2023-05-11T05:20:12.821Z,1011.91
2023-05-11T05:21:57.799Z,1011.9
2023-05-11T05:23:42.814Z,1011.98
2023-05-11T05:25:27.784Z,1011.96
2023-05-11T05:27:12.801Z,1011.83
2023-05-11T05:28:57.882Z,1012.01
2023-05-11T05:30:42.831Z,1011.89
2023-05-11T05:32:27.794Z,1011.94
2023-05-11T05:34:14.032Z,1011.96
2023-05-11T05:35:57.810Z,1012.03
2023-05-11T05:37:42.812Z,1011.94
2023-05-11T05:39:27.902Z,1012.02
2023-05-11T05:41:13.116Z,1012.03
2023-05-11T05:42:57.814Z,1012
2023-05-11T05:44:42.868Z,1012.02
2023-05-11T05:46:27.853Z,1012.09
2023-05-11T05:48:12.786Z,1012.09
2023-05-11T05:49:57.904Z,1012.14
2023-05-11T05:51:42.824Z,1012.14
2023-05-11T05:53:27.838Z,1012.17
2023-05-11T05:55:12.864Z,1012.27
2023-05-11T05:56:57.845Z,1012.3
2023-05-11T05:58:42.824Z,1012.29
2023-05-11T06:00:27.855Z,1012.25
2023-05-11T06:02:12.849Z,1012.25
2023-05-11T06:03:58.028Z,1012.28
2023-05-11T06:05:42.914Z,1012.23
2023-05-11T06:07:27.806Z,1012.23
2023-05-11T06:09:12.837Z,1012.36
2023-05-11T06:10:57.911Z,1012.27
2023-05-11T06:12:42.850Z,1012.28
2023-05-11T06:14:27.847Z,1012.29
2023-05-11T06:16:12.942Z,1012.26
2023-05-11T06:17:57.991Z,1012.2
2023-05-11T06:19:42.823Z,1012.21
2023-05-11T06:21:27.949Z,1012.22
2023-05-11T06:23:12.856Z,1012.27
2023-05-11T06:24:57.863Z,1012.34
2023-05-11T06:26:42.917Z,1012.22
2023-05-11T06:28:27.838Z,1012.25
2023-05-11T06:30:12.890Z,1012.25
2023-05-11T06:31:58.043Z,1012.14
2023-05-11T06:33:42.889Z,1012.24
2023-05-11T06:35:27.859Z,1012.27
2023-05-11T06:37:12.965Z,1012.16
2023-05-11T06:38:57.892Z,1012.22
2023-05-11T06:40:42.913Z,1012.14
2023-05-11T06:42:27.944Z,1012.18
2023-05-11T06:44:12.874Z,1012.09
2023-05-11T06:45:57.912Z,1012.14
2023-05-11T06:47:42.933Z,1012.15
2023-05-11T06:49:27.887Z,1012.2
2023-05-11T06:51:12.893Z,1012.14
2023-05-11T06:52:57.939Z,1012.21
2023-05-11T06:54:42.868Z,1012.18
2023-05-11T06:56:27.897Z,1012.3
2023-05-11T06:58:12.964Z,1012.2
2023-05-11T06:59:58.200Z,1012.31
2023-05-11T07:01:42.973Z,1012.27
2023-05-11T07:03:27.995Z,1012.27
2023-05-11T07:05:12.912Z,1012.21
2023-05-11T07:06:57.916Z,1012.27
2023-05-11T07:08:43.356Z,1012.3
2023-05-11T07:10:28.202Z,1012.23
2023-05-11T07:12:12.917Z,1012.27
2023-05-11T07:13:57.936Z,1012.22
2023-05-11T07:15:42.924Z,1012.18
2023-05-11T07:17:27.950Z,1012.25
2023-05-11T07:19:13.687Z,1012.2
2023-05-11T07:20:57.933Z,1012.32
2023-05-11T07:22:43.272Z,1012.25
2023-05-11T07:24:29.226Z,1012.21
2023-05-11T07:26:12.917Z,1012.26
2023-05-11T07:27:57.926Z,1012.19
2023-05-11T07:29:42.976Z,1012.21
2023-05-11T07:31:27.973Z,1012.23
2023-05-11T07:33:12.948Z,1012.27
2023-05-11T07:34:57.960Z,1012.27
2023-05-11T07:36:42.986Z,1012.24
2023-05-11T07:38:28.230Z,1012.21
2023-05-11T07:40:13.318Z,1012.35
2023-05-11T07:41:57.992Z,1012.32
2023-05-11T07:43:42.950Z,1012.34
2023-05-11T07:45:28.010Z,1012.36
2023-05-11T07:47:12.960Z,1012.36
2023-05-11T07:49:07.520Z,1012.29
2023-05-11T07:50:42.987Z,1012.27
2023-05-11T07:52:27.972Z,1012.3
2023-05-11T07:54:13.261Z,1012.22
2023-05-11T07:55:58.034Z,1012.31
2023-05-11T07:57:42.956Z,1012.3
2023-05-11T07:59:27.995Z,1012.35
2023-05-11T08:01:13.032Z,1012.25
2023-05-11T08:02:58.356Z,1012.27
2023-05-11T08:04:43.012Z,1012.33
2023-05-11T08:06:28.014Z,1012.23
2023-05-11T08:08:12.979Z,1012.25
2023-05-11T08:09:57.997Z,1012.32
2023-05-11T08:11:43.055Z,1012.32
2023-05-11T08:13:27.990Z,1012.35
2023-05-11T08:15:12.993Z,1012.32
2023-05-11T08:16:58.723Z,1012.31
2023-05-11T08:18:43.036Z,1012.33
2023-05-11T08:20:27.980Z,1012.34
2023-05-11T08:22:13.061Z,1012.47
2023-05-11T08:23:58.004Z,1012.42
2023-05-11T08:25:43.321Z,1012.47
2023-05-11T08:27:28.106Z,1012.46
2023-05-11T08:29:13.041Z,1012.43
2023-05-11T08:30:58.033Z,1012.41
2023-05-11T08:34:28.095Z,1012.4
2023-05-11T08:36:13.338Z,1012.41
2023-05-11T08:37:58.084Z,1012.5
2023-05-11T08:39:46.435Z,1012.44
2023-05-11T08:41:28.043Z,1012.44
2023-05-11T08:43:13.101Z,1012.34
2023-05-11T08:44:58.059Z,1012.46
2023-05-11T08:46:43.395Z,1012.44
2023-05-11T08:48:28.124Z,1012.49
2023-05-11T08:50:13.061Z,1012.41
2023-05-11T08:51:58.081Z,1012.43
2023-05-11T08:53:43.081Z,1012.44
2023-05-11T08:55:28.080Z,1012.57
2023-05-11T08:57:13.062Z,1012.48
2023-05-11T08:58:58.176Z,1012.53
2023-05-11T09:00:43.078Z,1012.53
2023-05-11T09:02:28.099Z,1012.51
2023-05-11T09:04:13.175Z,1012.57
2023-05-11T09:05:58.115Z,1012.49
2023-05-11T09:07:43.104Z,1012.57
2023-05-11T09:09:28.150Z,1012.45
2023-05-11T09:11:13.095Z,1012.56
2023-05-11T09:12:58.107Z,1012.5
2023-05-11T09:14:43.200Z,1012.5
2023-05-11T09:16:36.011Z,1012.48
2023-05-11T09:18:13.190Z,1012.5
2023-05-11T09:19:58.462Z,1012.56
2023-05-11T09:21:43.129Z,1012.53
2023-05-11T09:23:28.128Z,1012.53
2023-05-11T09:25:13.161Z,1012.6
2023-05-11T09:26:58.150Z,1012.6
2023-05-11T09:28:46.011Z,1012.57
2023-05-11T09:30:28.317Z,1012.57
2023-05-11T09:32:13.110Z,1012.56
2023-05-11T09:34:00.246Z,1012.56
2023-05-11T09:35:43.183Z,1012.55
2023-05-11T09:37:28.093Z,1012.57
2023-05-11T09:39:16.564Z,1012.49
2023-05-11T09:40:58.172Z,1012.51
2023-05-11T09:42:43.435Z,1012.51
2023-05-11T09:44:28.151Z,1012.52
2023-05-11T09:46:13.220Z,1012.45
2023-05-11T09:47:58.172Z,1012.54
2023-05-11T09:49:43.171Z,1012.66
2023-05-11T09:51:28.193Z,1012.57
2023-05-11T09:53:13.175Z,1012.48
2023-05-11T09:54:58.160Z,1012.6
2023-05-11T09:56:43.221Z,1012.57
2023-05-11T09:58:28.160Z,1012.68
2023-05-11T10:00:13.158Z,1012.65
2023-05-11T10:01:58.287Z,1012.57
2023-05-11T10:03:43.276Z,1012.64
2023-05-11T10:05:28.161Z,1012.58
2023-05-11T10:07:13.262Z,1012.58
2023-05-11T10:08:58.176Z,1012.59
2023-05-11T10:10:43.176Z,1012.59
2023-05-11T10:12:28.246Z,1012.61
2023-05-11T10:14:13.179Z,1012.59
2023-05-11T10:15:58.253Z,1012.61
2023-05-11T10:17:43.304Z,1012.49
2023-05-11T10:19:28.173Z,1012.52
2023-05-11T10:21:13.477Z,1012.58
2023-05-11T10:22:58.263Z,1012.51
2023-05-11T10:24:43.181Z,1012.43
2023-05-11T10:26:28.202Z,1012.45
2023-05-11T10:28:13.208Z,1012.44
2023-05-11T10:29:58.230Z,1012.43
2023-05-11T10:31:43.557Z,1012.56
2023-05-11T10:33:28.272Z,1012.51
2023-05-11T10:35:13.228Z,1012.43
2023-05-11T10:36:58.266Z,1012.45
2023-05-11T10:38:43.260Z,1012.5
2023-05-11T10:40:28.230Z,1012.5
2023-05-11T10:42:13.272Z,1012.49
2023-05-11T10:43:58.279Z,1012.48
2023-05-11T10:45:43.292Z,1012.36
2023-05-11T10:47:28.265Z,1012.42
2023-05-11T10:49:13.360Z,1012.42
2023-05-11T10:50:58.240Z,1012.43
2023-05-11T10:52:43.284Z,1012.41
2023-05-11T10:54:28.318Z,1012.4
2023-05-11T10:56:13.256Z,1012.42
2023-05-11T10:57:58.256Z,1012.43
2023-05-11T10:59:43.293Z,1012.43
2023-05-11T11:01:28.277Z,1012.44
2023-05-11T11:03:13.616Z,1012.45
2023-05-11T11:04:58.339Z,1012.43
2023-05-11T11:06:43.674Z,1012.42
2023-05-11T11:08:28.274Z,1012.43
2023-05-11T11:10:13.303Z,1012.42
2023-05-11T11:11:58.582Z,1012.35
2023-05-11T11:13:43.282Z,1012.42
2023-05-11T11:15:28.643Z,1012.44
2023-05-11T11:17:13.361Z,1012.33
2023-05-11T11:18:58.306Z,1012.4
2023-05-11T11:20:43.347Z,1012.36
2023-05-11T11:22:28.309Z,1012.4
2023-05-11T11:24:13.339Z,1012.33
2023-05-11T11:25:58.339Z,1012.41
2023-05-11T11:27:43.320Z,1012.34
2023-05-11T11:29:28.323Z,1012.41
2023-05-11T11:31:13.388Z,1012.32
2023-05-11T11:32:58.353Z,1012.38
2023-05-11T11:34:43.309Z,1012.34
2023-05-11T11:36:28.380Z,1012.36
2023-05-11T11:38:13.305Z,1012.4
2023-05-11T11:40:02.847Z,1012.32
2023-05-11T11:41:43.387Z,1012.33
2023-05-11T11:43:28.349Z,1012.32
2023-05-11T11:45:13.329Z,1012.3
2023-05-11T11:46:58.430Z,1012.4
2023-05-11T11:48:43.341Z,1012.41
2023-05-11T11:50:28.654Z,1012.39
2023-05-11T11:52:13.419Z,1012.31
2023-05-11T11:54:00.575Z,1012.34
2023-05-11T11:55:43.346Z,1012.35
2023-05-11T11:57:28.394Z,1012.36
2023-05-11T11:59:13.365Z,1012.26
2023-05-11T12:00:59.731Z,1012.34
2023-05-11T12:02:43.456Z,1012.3
2023-05-11T12:04:28.505Z,1012.42
2023-05-11T12:06:13.366Z,1012.37
2023-05-11T12:07:58.418Z,1012.4
2023-05-11T12:09:43.379Z,1012.38
2023-05-11T12:11:28.361Z,1012.3
2023-05-11T12:13:13.433Z,1012.27
2023-05-11T12:14:58.385Z,1012.24
2023-05-11T12:16:43.418Z,1012.23
2023-05-11T12:18:28.714Z,1012.25
2023-05-11T12:20:13.404Z,1012.26
2023-05-11T12:21:58.380Z,1012.25
2023-05-11T12:23:43.505Z,1012.31
2023-05-11T12:25:28.375Z,1012.32
2023-05-11T12:27:13.415Z,1012.28
2023-05-11T12:28:58.401Z,1012.23
2023-05-11T12:30:43.392Z,1012.19
2023-05-11T12:32:28.427Z,1012.23
2023-05-11T12:34:13.460Z,1012.16
2023-05-11T12:35:58.412Z,1012.22
2023-05-11T12:37:43.402Z,1012.2
2023-05-11T12:39:28.463Z,1012.17
2023-05-11T12:41:13.738Z,1012.08
2023-05-11T12:42:58.417Z,1012.13
2023-05-11T12:44:43.457Z,1012.16
2023-05-11T12:46:28.492Z,1012.14
2023-05-11T12:48:13.428Z,1012.16
2023-05-11T12:49:58.462Z,1012.08
2023-05-11T12:51:43.406Z,1012.06
2023-05-11T12:53:28.405Z,1011.96
2023-05-11T12:55:13.579Z,1011.99
2023-05-11T12:56:58.431Z,1012.03
2023-05-11T12:58:43.459Z,1011.98
2023-05-11T13:00:28.525Z,1012
2023-05-11T13:02:13.528Z,1012.03
2023-05-11T13:03:58.540Z,1012.02
2023-05-11T13:05:43.586Z,1011.95
2023-05-11T13:07:28.452Z,1011.94
2023-05-11T13:09:13.464Z,1012.06
2023-05-11T13:10:58.505Z,1011.88
2023-05-11T13:12:43.451Z,1011.92
2023-05-11T13:14:28.791Z,1012.02
2023-05-11T13:16:13.512Z,1012
2023-05-11T13:17:58.612Z,1011.94
2023-05-11T13:19:43.772Z,1011.98
2023-05-11T13:21:28.521Z,1011.98
2023-05-11T13:23:13.448Z,1011.9
2023-05-11T13:24:58.501Z,1011.97
2023-05-11T13:26:43.516Z,1011.9
2023-05-11T13:28:28.487Z,1011.81
2023-05-11T13:30:13.494Z,1011.87
2023-05-11T13:31:58.578Z,1011.91
2023-05-11T13:33:43.497Z,1011.82
2023-05-11T13:35:28.473Z,1011.9
2023-05-11T13:37:13.511Z,1011.88
2023-05-11T13:38:58.480Z,1011.85
2023-05-11T13:40:43.484Z,1011.88
2023-05-11T13:42:28.607Z,1011.8
2023-05-11T13:44:13.477Z,1011.89
2023-05-11T13:45:58.507Z,1011.87
2023-05-11T13:47:45.596Z,1011.79
2023-05-11T13:49:28.495Z,1011.85
2023-05-11T13:51:13.563Z,1011.91
2023-05-11T13:52:58.576Z,1011.75
2023-05-11T13:54:43.508Z,1011.91
2023-05-11T13:56:28.530Z,1011.89
2023-05-11T13:58:13.585Z,1011.87
2023-05-11T13:59:58.509Z,1011.82
2023-05-11T14:01:43.641Z,1011.82
2023-05-11T14:03:28.628Z,1011.83
2023-05-11T14:05:13.620Z,1011.84
2023-05-11T14:06:58.508Z,1011.8
2023-05-11T14:08:43.627Z,1011.9
2023-05-11T14:10:28.530Z,1011.81
2023-05-11T14:12:13.511Z,1011.8
2023-05-11T14:13:58.610Z,1011.78
2023-05-11T14:15:43.584Z,1011.92
2023-05-11T14:17:29.795Z,1011.94
2023-05-11T14:19:13.680Z,1011.81
2023-05-11T14:20:58.524Z,1011.83
2023-05-11T14:22:43.538Z,1011.86
2023-05-11T14:24:28.883Z,1011.85
2023-05-11T14:26:13.566Z,1011.86
2023-05-11T14:27:58.532Z,1011.78
2023-05-11T14:29:44.264Z,1011.84
2023-05-11T14:31:28.587Z,1011.77
2023-05-11T14:33:13.691Z,1011.83
2023-05-11T14:34:58.629Z,1011.78
2023-05-11T14:36:43.582Z,1011.81
2023-05-11T14:38:28.574Z,1011.83
2023-05-11T14:40:13.618Z,1011.78
2023-05-11T14:41:58.564Z,1011.82
2023-05-11T14:43:43.570Z,1011.73
2023-05-11T14:45:28.744Z,1011.75
2023-05-11T14:47:13.623Z,1011.75
2023-05-11T14:48:58.580Z,1011.76
2023-05-11T14:50:43.645Z,1011.79
2023-05-11T14:52:28.579Z,1011.71
2023-05-11T14:54:13.553Z,1011.71
2023-05-11T14:55:58.692Z,1011.83
2023-05-11T14:57:43.633Z,1011.82
2023-05-11T14:59:28.607Z,1011.76
2023-05-11T15:01:13.662Z,1011.8
2023-05-11T15:02:58.949Z,1011.81
2023-05-11T15:04:43.604Z,1011.81
2023-05-11T15:06:28.590Z,1011.76
2023-05-11T15:08:26.081Z,1011.78
2023-05-11T15:09:58.595Z,1011.81
2023-05-11T15:11:43.949Z,1011.77
2023-05-11T15:13:28.587Z,1011.8
2023-05-11T15:15:13.662Z,1011.78
2023-05-11T15:16:58.657Z,1011.8
2023-05-11T15:18:43.606Z,1011.89
2023-05-11T15:20:28.608Z,1011.8
2023-05-11T15:22:13.681Z,1011.77
2023-05-11T15:23:58.602Z,1011.87
2023-05-11T15:25:43.633Z,1011.79
2023-05-11T15:27:28.648Z,1011.92
2023-05-11T15:29:13.609Z,1011.94
2023-05-11T15:30:58.595Z,1011.9
2023-05-11T15:32:43.677Z,1011.85
2023-05-11T15:34:28.621Z,1011.85
2023-05-11T15:36:13.625Z,1011.95
2023-05-11T15:37:58.665Z,1011.95
2023-05-11T15:39:43.643Z,1011.96
2023-05-11T15:41:28.636Z,1012.06
2023-05-11T15:43:13.673Z,1012.1
2023-05-11T15:44:58.649Z,1011.98
2023-05-11T15:46:43.638Z,1012.1
2023-05-11T15:48:28.723Z,1012.06
2023-05-11T15:50:13.684Z,1012.17
2023-05-11T15:51:58.937Z,1012.12
2023-05-11T15:53:43.670Z,1012.19
2023-05-11T15:55:28.647Z,1012.22
2023-05-11T15:57:13.646Z,1012.14
2023-05-11T15:58:58.690Z,1012.1
2023-05-11T16:00:43.684Z,1012
2023-05-11T16:02:28.731Z,1012.02
2023-05-11T16:04:13.687Z,1012.06
2023-05-11T16:05:58.638Z,1012.07
2023-05-11T16:07:43.642Z,1012.02
2023-05-11T16:09:28.716Z,1011.97
2023-05-11T16:11:13.650Z,1012.06
2023-05-11T16:12:59.004Z,1011.94
2023-05-11T16:14:43.694Z,1011.96
2023-05-11T16:16:28.704Z,1012.02
2023-05-11T16:18:13.738Z,1011.98
2023-05-11T16:19:58.758Z,1012
2023-05-11T16:21:43.708Z,1012.01
2023-05-11T16:23:28.676Z,1011.96
2023-05-11T16:25:13.783Z,1012
2023-05-11T16:26:58.685Z,1012.02
2023-05-11T16:28:44.350Z,1012.1
2023-05-11T16:30:28.967Z,1012.07
2023-05-11T16:32:13.699Z,1012.12
2023-05-11T16:33:58.678Z,1012.11
2023-05-11T16:35:43.789Z,1012.02
2023-05-11T16:37:28.689Z,1012.1
2023-05-11T16:39:13.692Z,1012.02
2023-05-11T16:40:58.749Z,1012.09
2023-05-11T16:42:43.724Z,1012.11
2023-05-11T16:44:28.707Z,1012.11
2023-05-11T16:46:13.782Z,1012.06
2023-05-11T16:47:58.727Z,1012.01
2023-05-11T16:49:43.717Z,1012.05
2023-05-11T16:51:29.081Z,1012.06
2023-05-11T16:53:13.758Z,1012.03
2023-05-11T16:54:59.303Z,1011.97
2023-05-11T16:56:43.778Z,1012.04
2023-05-11T16:58:28.730Z,1011.96
2023-05-11T17:00:13.727Z,1011.99
2023-05-11T17:01:58.786Z,1012.01
2023-05-11T17:03:43.779Z,1012.01
2023-05-11T17:05:28.748Z,1011.99
2023-05-11T17:07:13.838Z,1012.02
2023-05-11T17:08:58.737Z,1012.07
2023-05-11T17:10:43.752Z,1011.94
2023-05-11T17:12:29.085Z,1012.01
2023-05-11T17:14:13.752Z,1012.03
2023-05-11T17:15:58.776Z,1011.96
2023-05-11T17:17:44.087Z,1011.99
2023-05-11T17:19:28.769Z,1012.06
2023-05-11T17:21:13.750Z,1012.03
2023-05-11T17:22:58.827Z,1012
2023-05-11T17:24:43.795Z,1012.02
2023-05-11T17:26:39.513Z,1011.93
2023-05-11T17:28:13.772Z,1011.97
2023-05-11T17:29:58.764Z,1012.03
2023-05-11T17:31:43.859Z,1012.06
2023-05-11T17:33:28.954Z,1011.95
2023-05-11T17:35:13.793Z,1012.07
2023-05-11T17:36:58.834Z,1012.06
2023-05-11T17:38:43.815Z,1012.11
2023-05-11T17:40:28.806Z,1012.14
2023-05-11T17:42:13.780Z,1012.01
2023-05-11T17:43:58.848Z,1012.14
2023-05-11T17:45:43.836Z,1012.04
2023-05-11T17:47:29.120Z,1012.15
2023-05-11T17:49:13.886Z,1012.11
2023-05-11T17:50:58.801Z,1012.08
2023-05-11T17:52:43.796Z,1012.15
2023-05-11T17:54:28.882Z,1012.15
2023-05-11T17:56:13.806Z,1012.14
2023-05-11T17:57:58.837Z,1012.13
2023-05-11T17:59:43.867Z,1012.22
2023-05-11T18:01:28.861Z,1012.23
2023-05-11T18:03:13.931Z,1012.16
2023-05-11T18:04:58.893Z,1012.2
2023-05-11T18:06:43.812Z,1012.23
2023-05-11T18:08:29.136Z,1012.17
2023-05-11T18:10:13.940Z,1012.22
2023-05-11T18:11:58.808Z,1012.05
2023-05-11T18:13:43.854Z,1012.19
2023-05-11T18:15:28.833Z,1012.12
2023-05-11T18:17:14.134Z,1012.25
2023-05-11T18:18:58.874Z,1012.14
2023-05-11T18:20:43.877Z,1012.15
2023-05-11T18:22:28.828Z,1012.27
2023-05-11T18:24:13.888Z,1012.25
2023-05-11T18:25:58.906Z,1012.26
2023-05-11T18:27:43.833Z,1012.26
2023-05-11T18:29:28.856Z,1012.27
2023-05-11T18:31:13.971Z,1012.2
2023-05-11T18:32:58.868Z,1012.28
2023-05-11T18:34:43.860Z,1012.28
2023-05-11T18:36:28.886Z,1012.3
2023-05-11T18:38:13.885Z,1012.33
2023-05-11T18:39:58.853Z,1012.24
2023-05-11T18:41:43.953Z,1012.29
2023-05-11T18:43:28.896Z,1012.37
2023-05-11T18:45:13.861Z,1012.36
2023-05-11T18:46:58.969Z,1012.43
2023-05-11T18:48:43.931Z,1012.32
2023-05-11T18:50:28.877Z,1012.31
2023-05-11T18:52:13.949Z,1012.37
2023-05-11T18:53:58.907Z,1012.48
2023-05-11T18:55:52.280Z,1012.52
2023-05-11T18:57:28.941Z,1012.44
2023-05-11T18:59:13.905Z,1012.37
2023-05-11T19:00:59.246Z,1012.5
2023-05-11T19:02:43.956Z,1012.38
2023-05-11T19:04:28.924Z,1012.42
2023-05-11T19:06:13.870Z,1012.43
2023-05-11T19:07:58.943Z,1012.45
2023-05-11T19:09:43.915Z,1012.47
2023-05-11T19:11:28.901Z,1012.45
2023-05-11T19:13:13.970Z,1012.47
2023-05-11T19:14:58.910Z,1012.58
2023-05-11T19:16:43.949Z,1012.43
2023-05-11T19:18:28.966Z,1012.54
2023-05-11T19:20:13.934Z,1012.6
2023-05-11T19:21:58.908Z,1012.58
2023-05-11T19:23:43.980Z,1012.54
2023-05-11T19:25:28.902Z,1012.55
2023-05-11T19:27:13.948Z,1012.57
2023-05-11T19:28:59.000Z,1012.54
2023-05-11T19:30:43.933Z,1012.58
2023-05-11T19:32:29.003Z,1012.6
2023-05-11T19:34:13.952Z,1012.68
2023-05-11T19:35:58.916Z,1012.61
2023-05-11T19:37:43.938Z,1012.72
2023-05-11T19:39:29.284Z,1012.67
2023-05-11T19:41:13.913Z,1012.76
2023-05-11T19:42:58.942Z,1012.73
2023-05-11T19:44:44.020Z,1012.78
2023-05-11T19:46:28.995Z,1012.75
2023-05-11T19:48:14.001Z,1012.78
2023-05-11T19:49:58.994Z,1012.74
2023-05-11T19:51:43.959Z,1012.71
2023-05-11T19:53:28.982Z,1012.64
2023-05-11T19:55:14.004Z,1012.68
2023-05-11T19:56:58.940Z,1012.78
2023-05-11T19:58:43.956Z,1012.71
2023-05-11T20:00:29.122Z,1012.79
2023-05-11T20:02:13.964Z,1012.8
2023-05-11T20:03:59.001Z,1012.84
2023-05-11T20:05:44.051Z,1012.87
2023-05-11T20:07:28.972Z,1012.77
2023-05-11T20:09:14.270Z,1012.83
2023-05-11T20:10:58.988Z,1012.9
2023-05-11T20:12:43.975Z,1012.82
2023-05-11T20:14:29.010Z,1012.8
2023-05-11T20:16:14.104Z,1012.81
2023-05-11T20:17:58.994Z,1012.77
2023-05-11T20:19:44.032Z,1012.85
2023-05-11T20:21:29.070Z,1012.74
2023-05-11T20:23:13.990Z,1012.82
2023-05-11T20:24:59.029Z,1012.8
2023-05-11T20:26:44.335Z,1012.89
2023-05-11T20:28:28.997Z,1012.77
2023-05-11T20:30:14.010Z,1012.76
2023-05-11T20:31:59.143Z,1012.7
2023-05-11T20:35:29.020Z,1012.76
2023-05-11T20:37:14.067Z,1012.68
2023-05-11T20:38:59.071Z,1012.68
2023-05-11T20:40:43.999Z,1012.69
2023-05-11T20:42:29.042Z,1012.76
2023-05-11T20:44:14.440Z,1012.69
2023-05-11T20:45:59.059Z,1012.71
2023-05-11T20:47:44.122Z,1012.74
2023-05-11T20:49:37.949Z,1012.61
2023-05-11T20:51:14.033Z,1012.73
2023-05-11T20:52:59.075Z,1012.73
2023-05-11T20:54:44.149Z,1012.61
2023-05-11T20:56:29.044Z,1012.67
2023-05-11T20:58:14.038Z,1012.69
2023-05-11T21:01:44.061Z,1012.7
2023-05-11T21:03:29.117Z,1012.61
2023-05-11T21:05:14.116Z,1012.69
2023-05-11T21:06:59.046Z,1012.6
2023-05-11T21:08:44.084Z,1012.64
2023-05-11T21:10:29.098Z,1012.57
2023-05-11T21:12:14.044Z,1012.54
2023-05-11T21:13:59.104Z,1012.56
2023-05-11T21:15:44.097Z,1012.59
2023-05-11T21:17:29.420Z,1012.59
2023-05-11T21:19:14.092Z,1012.57
2023-05-11T21:20:59.126Z,1012.63